Time;durP1;ratioP1;P1;durP2;ratioP2;P2;SDS_P1;SDS_P2;PMS_P1;PMS_P2;Temp;Humidity;BMP_temperature;BMP_pressure;BME280_temperature;BME280_humidity;BME280_pressure;Samples;Min_cycle;Max_cycle;Signal;HPM_P1;HPM_P2
2021/03/03 00:02:08;;;;;;;;;;;;;;;9.26;52.52;102293.69;4997957;28;7042;-77
2021/03/03 00:04:33;;;;;;;;;;;;;;;9.23;52.36;102296.13;5012548;28;7523;-77
2021/03/03 00:06:59;;;;;;;;;;;;;;;9.21;52.24;102295.16;4995986;28;7270;-77
2021/03/03 00:09:24;;;;;;;;;;;;;;;9.16;52.55;102306.97;4997965;28;6787;-77
2021/03/03 00:11:50;;;;;;;;;;;;;;;9.14;52.43;102293.94;4999636;28;7382;-77
2021/03/03 00:14:15;;;;;;;;;;;;;;;9.12;52.30;102295.56;4998934;28;7343;-77
2021/03/03 00:16:41;;;;;;;;;;;;;;;9.08;52.32;102293.59;5000054;28;7294;-77
2021/03/03 00:19:06;;;;;;;;;;;;;;;9.00;52.93;102292.28;5016194;28;6929;-77
2021/03/03 00:21:32;;;;;;;;;;;;;;;9.02;52.59;102300.16;5000524;28;7011;-77
2021/03/03 00:23:58;;;;;;;;;;;;;;;8.99;52.65;102302.56;5015936;28;7314;-77
2021/03/03 00:26:23;;;;;;;;;;;;;;;8.95;52.53;102296.34;4999941;28;6854;-77
2021/03/03 00:28:49;;;;;;;;;;;;;;;8.90;52.82;102297.78;4999740;28;7222;-77
2021/03/03 00:31:14;;;;;;;;;;;;;;;8.89;52.76;102292.53;4998247;28;6796;-77
2021/03/03 00:33:40;;;;;;;;;;;;;;;8.84;52.66;102295.75;4998469;28;7267;-77
2021/03/03 00:36:05;;;;;;;;;;;;;;;8.81;53.35;102285.25;5015045;28;7428;-77
2021/03/03 00:38:31;;;;;;;;;;;;;;;8.75;52.81;102292.66;4998670;28;6776;-77
2021/03/03 00:40:56;;;;;;;;;;;;;;;8.74;52.96;102288.28;4999264;28;7227;-77
2021/03/03 00:43:22;;;;;;;;;;;;;;;8.72;52.88;102291.59;4999485;28;8246;-77
2021/03/03 00:45:47;;;;;;;;;;;;;;;8.69;52.79;102294.03;4998838;28;7532;-77
2021/03/03 00:48:13;;;;;;;;;;;;;;;8.64;53.40;102293.78;4997614;28;6799;-77
2021/03/03 00:50:39;;;;;;;;;;;;;;;8.60;53.08;102285.72;5014084;28;7256;-77
2021/03/03 00:53:12;;;;;;;;;;;;;;;8.59;53.45;102283.94;4993035;28;8507;-77
2021/03/03 00:55:37;;;;;;;;;;;;;;;8.58;53.10;102292.53;4992615;28;7309;-77
2021/03/03 00:58:03;;;;;;;;;;;;;;;8.53;53.22;102287.09;4998819;28;7828;-77
2021/03/03 01:00:28;;;;;;;;;;;;;;;8.51;53.41;102293.88;4994311;28;6874;-77
2021/03/03 01:02:54;;;;;;;;;;;;;;;8.48;53.57;102288.53;4995085;28;7011;-77
2021/03/03 01:05:20;;;;;;;;;;;;;;;8.41;53.25;102283.81;4995738;28;7491;-77
2021/03/03 01:07:45;;;;;;;;;;;;;;;8.42;53.37;102285.63;5000092;28;6852;-77
2021/03/03 01:10:11;;;;;;;;;;;;;;;8.41;53.47;102289.91;5012624;28;9562;-77
2021/03/03 01:12:37;;;;;;;;;;;;;;;8.31;53.72;102284.97;4997117;28;7360;-77
2021/03/03 01:15:03;;;;;;;;;;;;;;;8.35;53.38;102286.06;4997248;28;7218;-77
2021/03/03 01:17:28;;;;;;;;;;;;;;;8.30;53.71;102295.22;4995732;28;6792;-77
2021/03/03 01:19:54;;;;;;;;;;;;;;;8.29;53.40;102275.34;4998832;28;6979;-78
2021/03/03 01:22:19;;;;;;;;;;;;;;;8.26;53.38;102282.94;4999069;28;6787;-77
2021/03/03 01:24:45;;;;;;;;;;;;;;;8.22;53.39;102290.53;4996122;28;6999;-77
2021/03/03 01:27:10;;;;;;;;;;;;;;;8.19;53.77;102282.56;4997999;28;7189;-77
2021/03/03 01:29:36;;;;;;;;;;;;;;;8.18;53.78;102279.88;4998940;28;6795;-77
2021/03/03 01:32:01;;;;;;;;;;;;;;;8.15;53.75;102275.44;4999494;28;7014;-77
2021/03/03 01:34:27;;;;;;;;;;;;;;;8.13;53.57;102282.22;4999086;28;6795;-77
2021/03/03 01:36:52;;;;;;;;;;;;;;;8.08;53.83;102286.25;4999914;28;7197;-77
2021/03/03 01:39:18;;;;;;;;;;;;;;;8.06;54.07;102280.09;4999553;28;7333;-77
2021/03/03 01:41:43;;;;;;;;;;;;;;;8.02;53.91;102272.06;4998080;28;6888;-77
2021/03/03 01:44:09;;;;;;;;;;;;;;;8.00;53.81;102265.88;4997928;28;7304;-77
2021/03/03 01:46:34;;;;;;;;;;;;;;;7.98;53.89;102265.78;4994246;28;7162;-77
2021/03/03 01:49:00;;;;;;;;;;;;;;;7.97;53.87;102266.59;5011621;28;7725;-76
2021/03/03 01:51:26;;;;;;;;;;;;;;;7.95;54.15;102273.38;4998632;28;7315;-77
2021/03/03 01:53:53;;;;;;;;;;;;;;;7.93;53.72;102267.22;4996496;28;6800;-77
2021/03/03 01:56:18;;;;;;;;;;;;;;;7.90;54.21;102273.13;4994539;28;7584;-77
2021/03/03 01:58:44;;;;;;;;;;;;;;;7.87;53.90;102272.94;5011945;28;8495;-77
2021/03/03 02:01:10;;;;;;;;;;;;;;;7.81;54.38;102266.53;5011745;28;6800;-77
2021/03/03 02:03:38;;;;;;;;;;;;;;;7.80;54.22;102262.13;4995643;28;7468;-77
2021/03/03 02:06:09;;;;;;;;;;;;;;;7.78;54.06;102262.06;5010867;28;7259;-77
2021/03/03 02:08:38;;;;;;;;;;;;;;;7.78;54.15;102271.50;4996956;28;7949;-77
2021/03/03 02:11:11;;;;;;;;;;;;;;;7.74;54.21;102270.44;5000418;28;7230;-77
2021/03/03 02:13:40;;;;;;;;;;;;;;;7.71;54.41;102264.19;4997041;28;6856;-77
2021/03/03 02:16:06;;;;;;;;;;;;;;;7.68;54.09;102256.28;4999097;28;7087;-77
2021/03/03 02:18:32;;;;;;;;;;;;;;;7.66;54.60;102247.53;4996969;28;7216;-77
2021/03/03 02:21:14;;;;;;;;;;;;;;;7.62;54.30;102249.94;5000958;28;7260;-77
2021/03/03 02:24:09;;;;;;;;;;;;;;;7.60;54.07;102248.03;5004542;28;13334;-77
2021/03/03 02:26:34;;;;;;;;;;;;;;;7.56;54.31;102244.38;5009430;28;11443;-77
2021/03/03 02:29:02;;;;;;;;;;;;;;;7.55;54.16;102247.78;4995579;28;6798;-77
2021/03/03 02:31:28;;;;;;;;;;;;;;;7.50;54.57;102249.22;4995035;28;6808;-77
2021/03/03 02:33:53;;;;;;;;;;;;;;;7.50;54.39;102241.44;4997655;28;7075;-77
2021/03/03 02:36:21;;;;;;;;;;;;;;;7.45;54.63;102245.47;4995245;28;8451;-77
2021/03/03 02:38:46;;;;;;;;;;;;;;;7.44;54.51;102242.78;4993920;28;7302;-77
2021/03/03 02:41:14;;;;;;;;;;;;;;;7.43;54.61;102244.47;5004139;28;7214;-77
2021/03/03 02:43:40;;;;;;;;;;;;;;;7.41;54.36;102237.41;4997601;28;7229;-77
2021/03/03 02:46:06;;;;;;;;;;;;;;;7.39;54.43;102233.84;4979306;28;7961;-77
2021/03/03 02:48:31;;;;;;;;;;;;;;;7.34;54.66;102225.81;4997942;28;7087;-77
2021/03/03 02:50:57;;;;;;;;;;;;;;;7.28;54.75;102228.06;4999643;28;7356;-77
2021/03/03 02:53:22;;;;;;;;;;;;;;;7.30;54.62;102222.16;5016805;28;7083;-77
2021/03/03 02:55:48;;;;;;;;;;;;;;;7.31;54.61;102220.47;5015560;28;7012;-77
2021/03/03 02:58:13;;;;;;;;;;;;;;;7.28;54.65;102230.63;4999648;28;7047;-77
2021/03/03 03:00:41;;;;;;;;;;;;;;;7.24;54.91;102218.34;4995991;28;7838;-77
2021/03/03 03:03:26;;;;;;;;;;;;;;;7.24;54.83;102218.34;5013494;28;7198;-77
2021/03/03 03:05:59;;;;;;;;;;;;;;;7.23;55.04;102219.16;5014794;28;7265;-77
2021/03/03 03:08:25;;;;;;;;;;;;;;;7.20;55.03;102216.34;5000081;28;7011;-77
2021/03/03 03:10:51;;;;;;;;;;;;;;;7.18;54.64;102213.66;4998919;28;7646;-77
2021/03/03 03:13:17;;;;;;;;;;;;;;;7.18;55.11;102217.94;4998996;28;7222;-77
2021/03/03 03:15:42;;;;;;;;;;;;;;;7.18;55.06;102217.94;5013979;28;7257;-77
2021/03/03 03:18:12;;;;;;;;;;;;;;;7.15;55.26;102220.34;5001202;28;7471;-77
2021/03/03 03:20:37;;;;;;;;;;;;;;;7.13;54.87;102224.53;5000732;28;7766;-77
2021/03/03 03:23:03;;;;;;;;;;;;;;;7.10;55.17;102220.09;4986581;28;7248;-77
2021/03/03 03:25:29;;;;;;;;;;;;;;;7.06;55.31;102212.06;5015117;28;6775;-77
2021/03/03 03:27:55;;;;;;;;;;;;;;;7.04;54.76;102216.25;5002673;28;8255;-77
2021/03/03 03:30:20;;;;;;;;;;;;;;;7.03;55.04;102212.78;4981401;28;8146;-77
2021/03/03 03:32:46;;;;;;;;;;;;;;;7.00;55.31;102202.22;4999338;28;6806;-77
2021/03/03 03:35:11;;;;;;;;;;;;;;;6.98;55.01;102199.56;4998552;28;6860;-77
2021/03/03 03:37:38;;;;;;;;;;;;;;;6.96;55.44;102197.69;4998383;28;7240;-77
2021/03/03 03:40:04;;;;;;;;;;;;;;;6.98;55.17;102209.00;4985480;28;7361;-77
2021/03/03 03:42:29;;;;;;;;;;;;;;;6.96;55.25;102206.31;4986529;28;8414;-76
2021/03/03 03:44:55;;;;;;;;;;;;;;;6.93;55.59;102205.25;4987319;28;7222;-76
2021/03/03 03:47:21;;;;;;;;;;;;;;;6.89;55.41;102204.19;4979657;28;7493;-77
2021/03/03 03:49:46;;;;;;;;;;;;;;;6.92;54.98;102199.19;5001209;28;7202;-77
2021/03/03 03:52:18;;;;;;;;;;;;;;;6.92;55.03;102203.47;4995775;28;8019;-77
2021/03/03 03:55:02;;;;;;;;;;;;;;;6.90;55.13;102210.22;5000486;28;7162;-77
2021/03/03 03:57:28;;;;;;;;;;;;;;;6.86;55.36;102209.16;4994698;28;12694;-77
2021/03/03 03:59:54;;;;;;;;;;;;;;;6.86;55.29;102200.53;4982197;28;8328;-77
2021/03/03 04:02:19;;;;;;;;;;;;;;;6.86;55.15;102204.00;4999661;28;7125;-77
2021/03/03 04:04:45;;;;;;;;;;;;;;;6.85;55.28;102204.78;4997011;28;7130;-77
2021/03/03 04:07:11;;;;;;;;;;;;;;;6.83;55.34;102203.81;5000215;28;7210;-76
2021/03/03 04:09:36;;;;;;;;;;;;;;;6.79;55.53;102200.91;4996461;28;7210;-77
2021/03/03 04:12:02;;;;;;;;;;;;;;;6.79;55.80;102190.59;4990551;28;6969;-77
2021/03/03 04:14:27;;;;;;;;;;;;;;;6.81;55.19;102200.25;4983411;28;11333;-77
2021/03/03 04:16:53;;;;;;;;;;;;;;;6.79;55.88;102201.81;4998367;28;7509;-77
2021/03/03 04:19:18;;;;;;;;;;;;;;;6.79;55.68;102209.56;4998374;28;6971;-77
2021/03/03 04:21:44;;;;;;;;;;;;;;;6.77;55.32;102206.00;5000156;28;9503;-77
2021/03/03 04:24:09;;;;;;;;;;;;;;;6.77;55.45;102212.84;5000870;28;7869;-77
2021/03/03 04:26:35;;;;;;;;;;;;;;;6.74;55.45;102213.56;5014521;28;8140;-77
2021/03/03 04:29:01;;;;;;;;;;;;;;;6.75;55.34;102210.16;5016554;28;7733;-77
2021/03/03 04:31:26;;;;;;;;;;;;;;;6.74;55.48;102205.81;5017706;28;6783;-77
2021/03/03 04:33:52;;;;;;;;;;;;;;;6.74;55.30;102205.81;4999804;28;7355;-77
2021/03/03 04:36:17;;;;;;;;;;;;;;;6.69;55.64;102205.53;5012513;28;7083;-77
2021/03/03 04:38:43;;;;;;;;;;;;;;;6.68;55.77;102208.03;4997610;28;6817;-77
2021/03/03 04:41:08;;;;;;;;;;;;;;;6.67;55.92;102196.81;4998225;28;6798;-77
2021/03/03 04:43:34;;;;;;;;;;;;;;;6.67;55.75;102199.38;4993984;28;7218;-77
2021/03/03 04:45:59;;;;;;;;;;;;;;;6.66;55.79;102194.13;4997919;28;8557;-77
2021/03/03 04:48:25;;;;;;;;;;;;;;;6.66;55.86;102207.03;4996065;28;6867;-77
2021/03/03 04:50:50;;;;;;;;;;;;;;;6.64;56.01;102209.53;5013195;28;6855;-77
2021/03/03 04:53:18;;;;;;;;;;;;;;;6.63;55.76;102207.75;4998484;28;7106;-77
2021/03/03 04:55:44;;;;;;;;;;;;;;;6.63;55.66;102206.84;4996827;28;7110;-77
2021/03/03 04:58:09;;;;;;;;;;;;;;;6.61;55.96;102201.59;4995576;28;7484;-77
2021/03/03 05:00:35;;;;;;;;;;;;;;;6.62;55.89;102202.47;4999337;28;6806;-77
2021/03/03 05:03:00;;;;;;;;;;;;;;;6.61;55.60;102203.28;4997082;28;7505;-77
2021/03/03 05:05:26;;;;;;;;;;;;;;;6.61;55.40;102200.69;4998429;28;8063;-77
2021/03/03 05:07:51;;;;;;;;;;;;;;;6.59;56.07;102207.44;5013928;28;7023;-75
2021/03/03 05:10:17;;;;;;;;;;;;;;;6.59;55.90;102199.69;4996431;28;8045;-78
2021/03/03 05:12:42;;;;;;;;;;;;;;;6.59;55.95;102197.09;4998239;28;6794;-75
2021/03/03 05:15:08;;;;;;;;;;;;;;;6.59;55.92;102189.34;4999606;28;7082;-76
2021/03/03 05:17:34;;;;;;;;;;;;;;;6.58;56.05;102187.56;4997678;28;7210;-77
2021/03/03 05:20:00;;;;;;;;;;;;;;;6.58;56.15;102185.88;4997917;28;7158;-77
2021/03/03 05:22:25;;;;;;;;;;;;;;;6.57;55.68;102185.78;4999182;28;6996;-77
2021/03/03 05:24:51;;;;;;;;;;;;;;;6.56;56.28;102191.75;4997288;28;6858;-76
2021/03/03 05:27:16;;;;;;;;;;;;;;;6.57;55.81;102183.22;4997444;28;7194;-81
2021/03/03 05:29:42;;;;;;;;;;;;;;;6.57;55.93;102188.38;4996933;28;7334;-78
2021/03/03 05:32:07;;;;;;;;;;;;;;;6.55;55.62;102182.22;4999550;28;8257;-79
2021/03/03 05:34:33;;;;;;;;;;;;;;;6.55;56.09;102171.91;4999930;28;7731;-79
2021/03/03 05:36:58;;;;;;;;;;;;;;;6.55;55.91;102179.66;4996409;28;7164;-80
2021/03/03 05:39:24;;;;;;;;;;;;;;;6.53;55.97;102178.66;5012333;28;8630;-80
2021/03/03 05:41:50;;;;;;;;;;;;;;;6.51;56.15;102165.66;5014866;28;6788;-80
2021/03/03 05:44:15;;;;;;;;;;;;;;;6.53;55.96;102181.25;4996634;28;7370;-79
2021/03/03 05:46:42;;;;;;;;;;;;;;;6.54;56.09;102178.75;4992777;28;7063;-81
2021/03/03 05:49:08;;;;;;;;;;;;;;;6.56;56.27;102181.44;4999213;28;7953;-76
2021/03/03 05:51:34;;;;;;;;;;;;;;;6.52;55.80;102179.47;4966434;28;8575;-79
2021/03/03 05:54:00;;;;;;;;;;;;;;;6.52;55.84;102179.47;4975792;28;11006;-79
2021/03/03 05:56:26;;;;;;;;;;;;;;;6.63;55.64;102178.44;4994799;28;7246;-82
2021/03/03 05:58:51;;;;;;;;;;;;;;;6.67;55.63;102178.72;4995017;28;7238;-81
2021/03/03 06:01:17;;;;;;;;;;;;;;;6.68;55.79;102177.03;4988646;28;7112;-81
2021/03/03 06:03:43;;;;;;;;;;;;;;;6.72;55.68;102179.00;5021023;28;7028;-82
2021/03/03 06:06:08;;;;;;;;;;;;;;;6.74;55.40;102174.81;4997210;28;8041;-79
2021/03/03 06:08:34;;;;;;;;;;;;;;;6.79;55.48;102176.00;5000980;28;8713;-81
2021/03/03 06:10:59;;;;;;;;;;;;;;;6.82;55.53;102183.94;5016079;28;7394;-81
2021/03/03 06:13:25;;;;;;;;;;;;;;;6.83;55.13;102179.69;4995999;28;7238;-79
2021/03/03 06:15:51;;;;;;;;;;;;;;;6.83;55.81;102177.09;4997492;28;7322;-81
2021/03/03 06:18:17;;;;;;;;;;;;;;;6.85;55.26;102178.97;5001317;28;7213;-81
2021/03/03 06:20:44;;;;;;;;;;;;;;;6.87;55.32;102182.53;5000391;28;8123;-80
2021/03/03 06:23:23;;;;;;;;;;;;;;;6.92;55.09;102183.69;5001704;28;8407;-80
2021/03/03 06:26:09;;;;;;;;;;;;;;;6.89;56.18;102180.94;5000565;28;7402;-81
2021/03/03 06:28:35;;;;;;;;;;;;;;;7.00;55.61;102184.16;5006923;28;11694;-80
2021/03/03 06:31:21;;;;;;;;;;;;;;;6.99;55.57;102187.53;5004468;28;11054;-76
2021/03/03 06:33:47;;;;;;;;;;;;;;;7.01;55.95;102188.53;5006070;28;11531;-80
2021/03/03 06:36:26;;;;;;;;;;;;;;;7.07;55.72;102182.84;5022753;28;7926;-80
2021/03/03 06:38:52;;;;;;;;;;;;;;;7.12;55.45;102181.44;4993040;28;6811;-80
2021/03/03 06:41:18;;;;;;;;;;;;;;;7.15;55.04;102181.59;5004025;28;7276;-80
2021/03/03 06:43:58;;;;;;;;;;;;;;;7.14;55.11;102179.81;5018674;28;8361;-81
2021/03/03 06:46:24;;;;;;;;;;;;;;;7.16;55.37;102178.22;5000068;28;8783;-81
2021/03/03 06:48:50;;;;;;;;;;;;;;;7.22;55.00;102187.25;4987525;28;7072;-81
2021/03/03 06:51:21;;;;;;;;;;;;;;;7.20;55.47;102190.50;4992477;28;7190;-81
2021/03/03 06:53:46;;;;;;;;;;;;;;;7.25;54.89;102194.28;5007118;28;7214;-81
2021/03/03 06:56:12;;;;;;;;;;;;;;;7.28;54.86;102189.28;5001076;28;7060;-81
2021/03/03 06:58:37;;;;;;;;;;;;;;;7.31;54.84;102189.47;5006476;28;7278;-80
2021/03/03 07:01:03;;;;;;;;;;;;;;;7.32;55.17;102192.16;5006279;28;7443;-80
2021/03/03 07:03:35;;;;;;;;;;;;;;;7.32;54.70;102192.16;5003652;28;7034;-80
2021/03/03 07:06:01;;;;;;;;;;;;;;;7.32;55.00;102199.00;5016573;28;7223;-80
2021/03/03 07:08:26;;;;;;;;;;;;;;;7.34;54.99;102199.97;4993533;28;7520;-80
2021/03/03 07:10:52;;;;;;;;;;;;;;;7.36;55.31;102195.78;5028931;28;7269;-80
2021/03/03 07:13:18;;;;;;;;;;;;;;;7.41;54.62;102198.66;5004834;28;6862;-80
2021/03/03 07:15:43;;;;;;;;;;;;;;;7.41;54.80;102196.97;5007712;28;7496;-80
2021/03/03 07:18:31;;;;;;;;;;;;;;;7.43;54.55;102205.72;5002444;28;6776;-81
2021/03/03 07:20:56;;;;;;;;;;;;;;;7.45;54.94;102209.28;5001774;28;7295;-80
2021/03/03 07:23:41;;;;;;;;;;;;;;;7.50;54.61;102204.38;4987833;28;6844;-81
2021/03/03 07:26:07;;;;;;;;;;;;;;;7.53;54.67;102207.13;5018163;28;11512;-81
2021/03/03 07:28:32;;;;;;;;;;;;;;;7.53;54.50;102204.53;4979558;28;8546;-79
2021/03/03 07:30:58;;;;;;;;;;;;;;;7.60;54.17;102201.50;4985115;28;6784;-79
2021/03/03 07:33:23;;;;;;;;;;;;;;;7.67;54.18;102200.19;4986986;28;6964;-80
2021/03/03 07:35:49;;;;;;;;;;;;;;;7.71;53.89;102196.97;5004222;28;6788;-80
2021/03/03 07:38:14;;;;;;;;;;;;;;;7.77;53.79;102194.72;5005035;28;9277;-79
2021/03/03 07:40:40;;;;;;;;;;;;;;;7.79;53.73;102196.59;4971997;28;8413;-79
2021/03/03 07:43:05;;;;;;;;;;;;;;;7.83;53.74;102192.53;4986593;28;6788;-79
2021/03/03 07:45:39;;;;;;;;;;;;;;;7.85;54.18;102198.66;4980694;28;7661;-84
2021/03/03 07:48:05;;;;;;;;;;;;;;;7.93;53.63;102193.13;4982876;28;11502;-83
2021/03/03 07:50:31;;;;;;;;;;;;;;;7.98;53.21;102195.06;4984565;28;7277;-83
2021/03/03 07:52:57;;;;;;;;;;;;;;;8.07;53.35;102205.94;4982323;28;7166;-82
2021/03/03 07:55:23;;;;;;;;;;;;;;;8.20;53.19;102210.97;5003355;28;7047;-84
2021/03/03 07:57:49;;;;;;;;;;;;;;;8.28;53.09;102209.72;5001441;28;7255;-83
2021/03/03 08:00:22;;;;;;;;;;;;;;;8.35;52.32;102206.69;5011427;28;6969;-83
2021/03/03 08:02:49;;;;;;;;;;;;;;;8.43;52.46;102212.31;5020941;28;7273;-83
2021/03/03 08:05:34;;;;;;;;;;;;;;;8.50;52.25;102215.31;4993870;28;6872;-83
2021/03/03 08:10:50;;;;;;;;;;;;;;;8.61;52.05;102208.16;5019144;28;11143;-83
2021/03/03 08:13:17;;;;;;;;;;;;;;;8.70;52.41;102211.22;5004918;28;7222;-82
2021/03/03 08:15:44;;;;;;;;;;;;;;;8.79;51.78;102209.13;4996829;28;7182;-82
2021/03/03 08:18:21;;;;;;;;;;;;;;;8.90;51.89;102199.34;5017312;28;7244;-83
2021/03/03 08:20:49;;;;;;;;;;;;;;;8.99;51.07;102198.91;5003372;28;7923;-83
2021/03/03 08:23:32;;;;;;;;;;;;;;;9.04;51.25;102202.66;4988602;28;8448;-83
2021/03/03 08:26:01;;;;;;;;;;;;;;;9.11;51.17;102199.56;5005221;28;6792;-83
2021/03/03 08:28:31;;;;;;;;;;;;;;;9.20;51.06;102194.84;5000835;28;7021;-82
2021/03/03 08:31:11;;;;;;;;;;;;;;;9.28;50.55;102192.69;5003299;28;6879;-80
2021/03/03 08:33:41;;;;;;;;;;;;;;;9.34;50.51;102193.88;5005249;28;11040;-81
2021/03/03 08:36:07;;;;;;;;;;;;;;;9.41;50.50;102200.25;5017562;28;11246;-82
2021/03/03 08:38:33;;;;;;;;;;;;;;;9.47;50.38;102202.28;5006200;28;6949;-81
2021/03/03 08:41:16;;;;;;;;;;;;;;;9.54;50.33;102196.59;5003920;28;8700;-81
2021/03/03 08:43:46;;;;;;;;;;;;;;;9.60;50.12;102191.69;5020122;28;13118;-81
2021/03/03 08:46:17;;;;;;;;;;;;;;;9.67;49.93;102199.00;4986176;28;8514;-80
2021/03/03 08:48:44;;;;;;;;;;;;;;;9.76;49.72;102192.53;4992132;28;6999;-80
2021/03/03 08:51:24;;;;;;;;;;;;;;;9.91;49.52;102189.81;5001225;28;6812;-80
2021/03/03 08:53:54;;;;;;;;;;;;;;;9.94;49.53;102192.56;5003287;28;12796;-80
2021/03/03 08:56:36;;;;;;;;;;;;;;;10.03;49.24;102194.72;5001759;28;8518;-81
2021/03/03 08:59:08;;;;;;;;;;;;;;;10.15;48.60;102194.41;5002014;28;7592;-81
2021/03/03 09:01:53;;;;;;;;;;;;;;;10.25;48.70;102196.69;4997796;28;7359;-81
2021/03/03 09:04:20;;;;;;;;;;;;;;;10.34;48.56;102197.09;5018050;28;11073;-79
2021/03/03 09:06:48;;;;;;;;;;;;;;;10.44;48.70;102190.66;5013665;28;7376;-81
2021/03/03 09:09:14;;;;;;;;;;;;;;;10.50;48.51;102190.94;5018996;28;7248;-80
2021/03/03 09:11:39;;;;;;;;;;;;;;;10.60;48.13;102185.31;5005906;28;6794;-80
2021/03/03 09:14:06;;;;;;;;;;;;;;;10.68;48.01;102193.47;5005012;28;6997;-81
2021/03/03 09:16:31;;;;;;;;;;;;;;;10.74;47.69;102204.16;5021496;28;8431;-80
2021/03/03 09:19:07;;;;;;;;;;;;;;;10.83;47.46;102195.06;5002743;28;7334;-79
2021/03/03 09:21:51;;;;;;;;;;;;;;;10.93;46.87;102193.75;4954381;28;7153;-80
2021/03/03 09:24:17;;;;;;;;;;;;;;;11.01;47.40;102194.09;4990962;28;10928;-79
2021/03/03 09:26:43;;;;;;;;;;;;;;;11.09;47.27;102187.53;4979901;28;7379;-79
2021/03/03 09:29:26;;;;;;;;;;;;;;;11.18;47.15;102191.41;4961291;28;7665;-81
2021/03/03 09:31:58;;;;;;;;;;;;;;;11.26;46.54;102178.75;4971105;28;11589;-80
2021/03/03 09:34:26;;;;;;;;;;;;;;;11.38;46.16;102181.88;4982976;28;7095;-80
2021/03/03 09:36:56;;;;;;;;;;;;;;;11.41;46.32;102173.31;4982340;28;6833;-80
2021/03/03 09:39:21;;;;;;;;;;;;;;;11.55;46.19;102169.59;4961753;28;7965;-80
2021/03/03 09:41:58;;;;;;;;;;;;;;;11.63;46.27;102173.41;5003316;28;7005;-80
2021/03/03 09:44:24;;;;;;;;;;;;;;;11.68;45.99;102166.69;4974866;28;7188;-80
2021/03/03 09:46:56;;;;;;;;;;;;;;;11.78;46.09;102166.25;4983764;28;7337;-81
2021/03/03 09:49:23;;;;;;;;;;;;;;;11.84;46.02;102161.31;4964069;28;7436;-79
2021/03/03 09:51:51;;;;;;;;;;;;;;;11.94;45.56;102164.28;4995225;28;7377;-79
2021/03/03 09:54:34;;;;;;;;;;;;;;;12.02;45.37;102163.78;4992840;28;6867;-79
2021/03/03 09:57:04;;;;;;;;;;;;;;;12.11;45.64;102165.84;4982662;28;7056;-79
2021/03/03 09:59:50;;;;;;;;;;;;;;;12.18;44.93;102158.31;4990843;28;6808;-80
2021/03/03 10:02:19;;;;;;;;;;;;;;;12.29;44.99;102158.75;4990462;28;11048;-80
2021/03/03 10:04:45;;;;;;;;;;;;;;;12.40;44.83;102156.53;5005016;28;8446;-80
2021/03/03 10:10:47;;;;;;;;;;;;;;;12.63;44.21;102154.81;4931086;28;7206;-80
2021/03/03 10:13:25;;;;;;;;;;;;;;;12.73;44.28;102152.59;4993817;28;11223;-80
2021/03/03 10:15:53;;;;;;;;;;;;;;;12.84;44.03;102146.91;4996025;28;11232;-80
2021/03/03 10:18:22;;;;;;;;;;;;;;;12.95;43.70;102149.03;4989239;28;7083;-79
2021/03/03 10:21:25;;;;;;;;;;;;;;;;;;;;;
2021/03/03 10:23:51;;;;;;;;;;;;;;;13.20;43.67;102149.94;4996400;28;20055;-79
2021/03/03 10:26:17;;;;;;;;;;;;;;;13.27;43.63;102152.81;5025526;28;7594;-79
2021/03/03 10:29:30;;;;;;;;;;;;;;;13.43;42.73;102150.75;4975338;28;8365;-79
2021/03/03 10:32:25;;;;;;;;;;;;;;;13.60;42.48;102152.16;4908600;28;11101;-79
2021/03/03 10:35:06;;;;;;;;;;;;;;;13.72;42.89;102146.47;4930583;28;12982;-79
2021/03/03 10:37:32;;;;;;;;;;;;;;;13.85;42.04;102141.72;4912951;28;7147;-80
2021/03/03 10:40:12;;;;;;;;;;;;;;;14.00;41.89;102147.41;4947526;28;6791;-79
2021/03/03 10:46:12;;;;;;;;;;;;;;;14.31;41.72;102150.97;4911261;28;11230;-79
2021/03/03 10:48:37;;;;;;;;;;;;;;;14.42;41.74;102152.19;4929540;28;7489;-80
2021/03/03 10:51:08;;;;;;;;;;;;;;;14.56;40.85;102150.88;4889469;28;8409;-79
2021/03/03 10:53:59;;;;;;;;;;;;;;;14.71;41.08;102154.78;4907879;28;8072;-80
2021/03/03 10:56:33;;;;;;;;;;;;;;;14.87;40.64;102155.28;4942294;28;11067;-79
2021/03/03 10:59:11;;;;;;;;;;;;;;;15.00;40.13;102146.00;4991385;28;7305;-80
2021/03/03 11:01:57;;;;;;;;;;;;;;;15.12;40.22;102146.34;4998543;28;7023;-81
2021/03/03 11:04:45;;;;;;;;;;;;;;;15.31;39.79;102142.50;5001642;28;11004;-79
2021/03/03 11:07:11;;;;;;;;;;;;;;;15.44;39.88;102138.47;5001642;28;7456;-79
2021/03/03 11:09:36;;;;;;;;;;;;;;;15.56;39.38;102137.88;4991440;28;7237;-80
2021/03/03 11:12:06;;;;;;;;;;;;;;;15.75;39.38;102141.03;4993603;28;7121;-80
2021/03/03 11:14:31;;;;;;;;;;;;;;;15.87;39.14;102123.84;4992359;28;8724;-80
2021/03/03 11:16:58;;;;;;;;;;;;;;;16.01;38.69;102132.88;5017570;28;7198;-79
2021/03/03 11:19:26;;;;;;;;;;;;;;;16.15;38.57;102125.34;5004043;28;7372;-79
2021/03/03 11:21:52;;;;;;;;;;;;;;;16.33;38.47;102112.63;4981006;28;7040;-80
2021/03/03 11:24:20;;;;;;;;;;;;;;;16.48;38.14;102114.72;5000299;28;6859;-79
2021/03/03 11:26:49;;;;;;;;;;;;;;;16.59;38.03;102102.69;4991746;28;11439;-78
2021/03/03 11:29:14;;;;;;;;;;;;;;;16.72;38.05;102100.38;5017042;28;6986;-79
2021/03/03 11:31:40;;;;;;;;;;;;;;;16.92;37.41;102095.50;5019333;28;7517;-79
2021/03/03 11:34:06;;;;;;;;;;;;;;;17.09;37.00;102087.94;5009336;28;7281;-80
2021/03/03 11:36:31;;;;;;;;;;;;;;;17.21;37.33;102089.88;5002706;28;6859;-78
2021/03/03 11:38:57;;;;;;;;;;;;;;;17.43;36.72;102088.53;5002236;28;6798;-80
2021/03/03 11:41:23;;;;;;;;;;;;;;;17.57;36.68;102087.88;4994995;28;6959;-79
2021/03/03 11:43:48;;;;;;;;;;;;;;;17.69;36.48;102092.47;4995222;28;7384;-79
2021/03/03 11:46:14;;;;;;;;;;;;;;;17.92;36.45;102091.06;4998541;28;7083;-79
2021/03/03 11:48:39;;;;;;;;;;;;;;;18.05;35.94;102088.63;4999788;28;7222;-80
2021/03/03 11:51:05;;;;;;;;;;;;;;;18.25;35.79;102084.53;5001361;28;7192;-78
2021/03/03 11:53:31;;;;;;;;;;;;;;;18.45;35.50;102076.88;5001474;28;6997;-78
2021/03/03 11:55:56;;;;;;;;;;;;;;;18.54;35.20;102069.97;5002248;28;7226;-78
2021/03/03 11:58:22;;;;;;;;;;;;;;;18.77;35.11;102072.00;5000942;28;7210;-79
2021/03/03 12:00:47;;;;;;;;;;;;;;;18.98;34.47;102066.06;5001947;28;8832;-78
2021/03/03 12:03:13;;;;;;;;;;;;;;;19.16;34.72;102063.59;5002721;28;7055;-79
2021/03/03 12:05:38;;;;;;;;;;;;;;;19.36;34.27;102058.50;5016422;28;6803;-80
2021/03/03 12:08:06;;;;;;;;;;;;;;;19.56;33.91;102062.19;5003217;28;6826;-80
2021/03/03 12:10:32;;;;;;;;;;;;;;;19.76;33.90;102054.44;4982027;28;9874;-79
2021/03/03 12:12:58;;;;;;;;;;;;;;;20.00;33.29;102043.13;5004313;28;9687;-79
2021/03/03 12:15:24;;;;;;;;;;;;;;;20.20;32.96;102046.75;4991883;28;7264;-79
2021/03/03 12:17:50;;;;;;;;;;;;;;;20.45;32.67;102041.63;5003024;28;6975;-79
2021/03/03 12:20:15;;;;;;;;;;;;;;;20.61;32.92;102044.28;5002212;28;7158;-78
2021/03/03 12:22:41;;;;;;;;;;;;;;;20.86;32.58;102046.97;5000676;28;6802;-78
2021/03/03 12:25:07;;;;;;;;;;;;;;;21.10;32.37;102039.06;5013273;28;8461;-76
2021/03/03 12:27:33;;;;;;;;;;;;;;;21.31;31.67;102029.41;5012690;28;6825;-76
2021/03/03 12:29:58;;;;;;;;;;;;;;;21.48;32.06;102031.16;4997896;28;7293;-75
2021/03/03 12:32:24;;;;;;;;;;;;;;;21.76;31.26;102031.09;4999723;28;6788;-76
2021/03/03 12:34:49;;;;;;;;;;;;;;;22.02;31.20;102023.94;4997016;28;7284;-75
2021/03/03 12:37:15;;;;;;;;;;;;;;;22.29;30.82;102030.06;4997232;28;7233;-76
2021/03/03 12:39:41;;;;;;;;;;;;;;;22.51;30.92;102023.75;5001103;28;6859;-77
2021/03/03 12:42:06;;;;;;;;;;;;;;;22.76;29.81;102021.84;5000117;28;7215;-77
2021/03/03 12:44:32;;;;;;;;;;;;;;;23.01;29.78;102011.97;5000110;28;7180;-79
2021/03/03 12:46:57;;;;;;;;;;;;;;;23.37;29.45;102008.97;5014575;28;7204;-77
2021/03/03 12:49:23;;;;;;;;;;;;;;;23.79;28.80;102009.44;5000341;28;7079;-76
2021/03/03 12:51:49;;;;;;;;;;;;;;;24.13;28.20;101996.66;4997912;28;11121;-77
2021/03/03 12:54:14;;;;;;;;;;;;;;;24.38;28.70;102001.66;4997283;28;7070;-77
2021/03/03 12:56:40;;;;;;;;;;;;;;;24.69;28.23;102000.31;5011728;28;7166;-78
2021/03/03 12:59:07;;;;;;;;;;;;;;;24.93;27.82;101995.53;4994314;28;6953;-78
2021/03/03 13:01:33;;;;;;;;;;;;;;;25.25;27.47;101992.34;5015753;28;7391;-77
2021/03/03 13:03:59;;;;;;;;;;;;;;;25.48;27.34;101993.69;5002379;28;7329;-78
2021/03/03 13:06:24;;;;;;;;;;;;;;;25.67;27.15;101980.03;4999163;28;7058;-78
2021/03/03 13:08:50;;;;;;;;;;;;;;;25.90;26.99;101977.81;4999848;28;8201;-78